Time;durP1;ratioP1;P1;durP2;ratioP2;P2;SDS_P1;SDS_P2;PMS_P1;PMS_P2;Temp;Humidity;BMP_temperature;BMP_pressure;BME280_temperature;BME280_humidity;BME280_pressure;Samples;Min_cycle;Max_cycle;Signal;HPM_P1;HPM_P2
2023/12/01 00:00:24;;;;;;;22.23;10.67;;;-3.50;99.90;;;;;;5034600;28;20198;-53
2023/12/01 00:02:50;;;;;;;17.30;10.77;;;-3.50;99.90;;;;;;5033080;28;20260;-56
2023/12/01 00:05:15;;;;;;;18.80;10.17;;;-3.50;99.90;;;;;;5024439;28;21024;-59
2023/12/01 00:07:41;;;;;;;26.83;11.40;;;-3.50;99.90;;;;;;5035731;28;20191;-57
2023/12/01 00:10:12;;;;;;;21.37;14.07;;;-3.50;99.90;;;;;;5032267;28;20293;-58
2023/12/01 00:12:38;;;;;;;22.10;13.33;;;-3.40;99.90;;;;;;5030088;28;20217;-60
2023/12/01 00:15:04;;;;;;;17.50;11.67;;;-3.40;99.90;;;;;;5037365;28;20874;-56
2023/12/01 00:17:30;;;;;;;17.13;11.57;;;-3.40;99.90;;;;;;5031502;28;20436;-57
2023/12/01 00:19:55;;;;;;;14.87;9.67;;;-3.40;99.90;;;;;;5031851;28;20459;-55
2023/12/01 00:22:21;;;;;;;15.40;10.60;;;-3.30;99.90;;;;;;5031743;28;20269;-58
2023/12/01 00:24:46;;;;;;;13.63;9.87;;;-3.40;99.90;;;;;;5032967;28;21123;-55
2023/12/01 00:27:12;;;;;;;14.70;9.73;;;-3.40;99.90;;;;;;5031267;28;20187;-56
2023/12/01 00:29:38;;;;;;;15.13;9.90;;;-3.30;99.90;;;;;;5018119;28;20199;-55
2023/12/01 00:32:03;;;;;;;13.60;8.30;;;-3.30;99.90;;;;;;5030785;28;20197;-60
2023/12/01 00:34:29;;;;;;;13.77;9.10;;;-3.30;99.90;;;;;;5031427;28;20294;-56
2023/12/01 00:36:55;;;;;;;19.33;9.10;;;-3.30;99.90;;;;;;5014142;28;20190;-55
2023/12/01 00:39:21;;;;;;;14.90;9.40;;;-3.30;99.90;;;;;;5033465;28;20213;-52
2023/12/01 00:41:46;;;;;;;15.37;8.70;;;-3.40;99.90;;;;;;5032064;28;20559;-55
2023/12/01 00:44:12;;;;;;;12.97;8.30;;;-3.30;99.90;;;;;;5032075;28;20461;-58
2023/12/01 00:46:38;;;;;;;13.03;8.90;;;-3.40;99.90;;;;;;5036204;28;20546;-61
2023/12/01 00:49:03;;;;;;;14.70;9.90;;;-3.40;99.90;;;;;;5033092;28;20273;-62
2023/12/01 00:51:29;;;;;;;16.27;11.53;;;-3.40;99.90;;;;;;5033134;28;20329;-57
2023/12/01 00:53:55;;;;;;;11.93;8.13;;;-3.40;99.90;;;;;;5032225;28;20245;-60
2023/12/01 00:56:20;;;;;;;18.57;10.00;;;-3.40;99.90;;;;;;5030520;28;20185;-58
2023/12/01 00:58:46;;;;;;;14.57;9.37;;;-3.50;99.90;;;;;;5030933;28;20206;-58
2023/12/01 01:01:11;;;;;;;13.03;9.50;;;-3.50;99.90;;;;;;5035147;28;20983;-61
2023/12/01 01:03:37;;;;;;;19.57;11.03;;;-3.50;99.90;;;;;;5033391;28;20294;-58
2023/12/01 01:06:03;;;;;;;15.47;8.93;;;-3.50;99.90;;;;;;5030663;28;20191;-61
2023/12/01 01:08:32;;;;;;;12.30;8.40;;;-3.50;99.90;;;;;;5030350;28;20189;-53
2023/12/01 01:10:58;;;;;;;15.87;9.90;;;-3.60;99.90;;;;;;5031799;28;20440;-54
2023/12/01 01:13:28;;;;;;;11.20;8.57;;;-3.50;99.90;;;;;;5031353;28;20441;-56
2023/12/01 01:15:53;;;;;;;17.70;9.47;;;-3.50;99.90;;;;;;5037873;28;20267;-60
2023/12/01 01:18:20;;;;;;;11.93;8.27;;;-3.50;99.90;;;;;;5031074;28;20429;-54
2023/12/01 01:20:46;;;;;;;15.50;8.93;;;-3.60;99.90;;;;;;5033189;28;20254;-58
2023/12/01 01:23:12;;;;;;;11.93;8.63;;;-3.60;99.90;;;;;;5032087;28;20466;-57
2023/12/01 01:25:37;;;;;;;16.60;9.47;;;-3.60;99.90;;;;;;5031244;28;20433;-61
2023/12/01 01:28:03;;;;;;;16.90;8.40;;;-3.60;99.90;;;;;;5032779;28;21442;-58
2023/12/01 01:30:29;;;;;;;14.50;8.33;;;-3.60;99.90;;;;;;5030538;28;20217;-61
2023/12/01 01:32:54;;;;;;;13.20;8.63;;;-3.70;99.90;;;;;;5034534;28;20198;-56
2023/12/01 01:35:20;;;;;;;12.43;8.13;;;-3.70;99.90;;;;;;4999452;28;21432;-60
2023/12/01 01:37:45;;;;;;;14.77;10.10;;;-3.80;99.90;;;;;;5030979;28;20185;-56
2023/12/01 01:40:13;;;;;;;15.90;9.03;;;-3.80;99.90;;;;;;5014140;28;20213;-59
2023/12/01 01:42:38;;;;;;;13.10;8.30;;;-3.80;99.90;;;;;;5031462;28;20530;-59
2023/12/01 01:45:05;;;;;;;14.03;8.70;;;-3.80;99.90;;;;;;5032197;28;20437;-57
2023/12/01 01:47:32;;;;;;;13.17;10.30;;;-3.90;99.90;;;;;;5038604;28;20190;-55
2023/12/01 01:49:58;;;;;;;15.43;9.40;;;-3.90;99.90;;;;;;5034738;28;20919;-59
2023/12/01 01:52:25;;;;;;;13.20;9.03;;;-4.00;99.90;;;;;;5036000;28;20522;-56
2023/12/01 01:54:51;;;;;;;11.43;8.53;;;-4.00;99.90;;;;;;5034776;28;22264;-59
2023/12/01 01:57:17;;;;;;;14.97;10.30;;;-4.00;99.90;;;;;;5035566;28;20907;-60
2023/12/01 01:59:44;;;;;;;16.20;9.57;;;-4.00;99.90;;;;;;5034884;28;20453;-59
2023/12/01 02:02:10;;;;;;;16.00;9.33;;;-4.10;99.90;;;;;;5036654;28;20447;-53
2023/12/01 02:04:36;;;;;;;17.30;9.70;;;-4.10;99.90;;;;;;5035429;28;20444;-56
2023/12/01 02:07:02;;;;;;;15.20;10.83;;;-4.10;99.90;;;;;;5034397;28;20186;-57
2023/12/01 02:09:33;;;;;;;19.67;13.23;;;-4.20;99.90;;;;;;5034246;28;20513;-52
2023/12/01 02:11:59;;;;;;;14.33;11.03;;;-4.20;99.90;;;;;;5035141;28;20178;-57
2023/12/01 02:14:25;;;;;;;18.00;12.20;;;-4.30;99.90;;;;;;5033801;28;20472;-56
2023/12/01 02:16:51;;;;;;;25.03;14.83;;;-4.30;99.90;;;;;;5035554;28;20562;-57
2023/12/01 02:19:16;;;;;;;19.40;13.43;;;-4.30;99.90;;;;;;5022640;28;20452;-56
2023/12/01 02:21:46;;;;;;;22.37;13.03;;;-4.40;99.90;;;;;;5034474;28;20464;-54
2023/12/01 02:24:12;;;;;;;19.43;13.60;;;-4.40;99.90;;;;;;5034655;28;20191;-58
2023/12/01 02:26:37;;;;;;;21.53;13.87;;;-4.40;99.90;;;;;;5034070;28;20429;-56
2023/12/01 02:29:06;;;;;;;22.87;13.50;;;-4.50;99.90;;;;;;5036751;28;21188;-56
2023/12/01 02:31:32;;;;;;;24.50;16.00;;;-4.50;99.90;;;;;;5033829;28;20186;-58
2023/12/01 02:33:58;;;;;;;22.57;14.60;;;-4.50;99.90;;;;;;5036938;28;20456;-54
2023/12/01 02:36:24;;;;;;;26.10;15.13;;;-4.60;99.90;;;;;;5028634;28;20186;-59
2023/12/01 02:38:50;;;;;;;22.30;13.70;;;-4.60;99.90;;;;;;5030556;28;20469;-52
2023/12/01 02:41:17;;;;;;;26.00;15.30;;;-4.60;99.90;;;;;;5031229;28;20186;-58
2023/12/01 02:43:45;;;;;;;23.83;14.13;;;-4.70;99.90;;;;;;5034623;28;20498;-59
2023/12/01 02:46:14;;;;;;;27.33;12.57;;;-4.70;99.90;;;;;;5033406;28;20770;-58
2023/12/01 02:48:40;;;;;;;23.00;12.53;;;-4.80;99.90;;;;;;5033337;28;20449;-56
2023/12/01 02:51:07;;;;;;;21.40;12.13;;;-4.80;99.90;;;;;;5032128;28;20441;-56
2023/12/01 02:53:34;;;;;;;19.47;11.77;;;-4.80;99.90;;;;;;5030164;28;20430;-59
2023/12/01 02:56:00;;;;;;;21.97;11.60;;;-4.80;99.90;;;;;;5031098;28;20449;-59
2023/12/01 02:58:25;;;;;;;17.93;10.97;;;-4.90;99.90;;;;;;5031520;28;20459;-55
2023/12/01 03:00:51;;;;;;;17.73;9.40;;;-4.90;99.90;;;;;;5032747;28;20434;-57
2023/12/01 03:03:17;;;;;;;17.23;11.53;;;-4.90;99.90;;;;;;5033117;28;20179;-58
2023/12/01 03:05:42;;;;;;;15.47;9.33;;;-4.90;99.90;;;;;;5035645;28;20194;-58
2023/12/01 03:08:08;;;;;;;13.23;8.73;;;-4.90;99.90;;;;;;5033035;28;20452;-57
2023/12/01 03:10:34;;;;;;;19.20;10.83;;;-4.90;99.90;;;;;;5035256;28;20311;-58
2023/12/01 03:13:00;;;;;;;14.70;9.00;;;-5.00;99.90;;;;;;5037649;28;20183;-57
2023/12/01 03:15:26;;;;;;;12.13;9.30;;;-5.00;99.90;;;;;;5032888;28;20518;-52
2023/12/01 03:17:51;;;;;;;17.97;10.43;;;-5.00;99.90;;;;;;5030422;28;20191;-59
2023/12/01 03:20:17;;;;;;;15.63;8.37;;;-4.90;99.90;;;;;;5033293;28;20237;-57
2023/12/01 03:22:45;;;;;;;10.90;8.13;;;-4.90;99.90;;;;;;5037224;28;20187;-58
2023/12/01 03:25:11;;;;;;;12.00;8.13;;;-4.90;99.90;;;;;;5032389;28;20183;-59
2023/12/01 03:27:45;;;;;;;10.70;7.27;;;-4.90;99.90;;;;;;5030798;28;20773;-58
2023/12/01 03:30:15;;;;;;;12.77;9.17;;;-5.00;99.90;;;;;;5031629;28;21101;-60
2023/12/01 03:32:51;;;;;;;12.13;7.50;;;-5.00;99.90;;;;;;5033593;28;20437;-57
2023/12/01 03:35:20;;;;;;;11.40;7.47;;;-5.10;99.90;;;;;;5033927;28;20469;-51
2023/12/01 03:37:46;;;;;;;12.90;6.37;;;-5.10;99.90;;;;;;5031951;28;20448;-59
2023/12/01 03:40:12;;;;;;;11.27;6.60;;;-5.10;99.90;;;;;;5030048;28;20473;-58
2023/12/01 03:42:49;;;;;;;10.53;6.60;;;-5.00;99.90;;;;;;5033794;28;20437;-55
2023/12/01 03:45:15;;;;;;;10.43;5.97;;;-5.00;99.90;;;;;;5031288;28;20510;-58
2023/12/01 03:47:46;;;;;;;9.97;6.90;;;-5.00;99.90;;;;;;5033762;28;20449;-58
2023/12/01 03:50:12;;;;;;;10.13;7.07;;;-4.90;99.90;;;;;;5033380;28;21199;-58
2023/12/01 03:52:39;;;;;;;9.43;6.63;;;-4.90;99.90;;;;;;5030879;28;20937;-59
2023/12/01 03:55:06;;;;;;;7.60;6.77;;;-5.00;99.90;;;;;;5033149;28;20815;-52
2023/12/01 03:57:31;;;;;;;9.07;7.23;;;-5.10;99.90;;;;;;5030061;28;21059;-60
2023/12/01 03:59:57;;;;;;;8.10;6.30;;;-5.10;99.90;;;;;;5032309;28;20457;-56
2023/12/01 04:02:22;;;;;;;10.57;7.57;;;-5.10;99.90;;;;;;5034530;28;20186;-59
2023/12/01 04:04:49;;;;;;;12.63;7.10;;;-5.10;99.90;;;;;;5029438;28;20518;-55
2023/12/01 04:07:15;;;;;;;11.97;7.10;;;-5.10;99.90;;;;;;5032528;28;20186;-55
2023/12/01 04:09:41;;;;;;;8.57;6.87;;;-5.10;99.90;;;;;;5029606;28;20507;-55
2023/12/01 04:12:07;;;;;;;12.37;6.57;;;-5.20;99.90;;;;;;5029647;28;20193;-58
2023/12/01 04:14:33;;;;;;;8.43;6.27;;;-5.20;99.90;;;;;;5014001;28;20514;-59
2023/12/01 04:17:08;;;;;;;11.53;6.67;;;-5.20;99.90;;;;;;5032068;28;20471;-57
2023/12/01 04:19:38;;;;;;;12.47;6.70;;;-5.20;99.90;;;;;;5030417;28;20216;-58
2023/12/01 04:22:07;;;;;;;7.33;5.87;;;-5.20;99.90;;;;;;5032035;28;20438;-56
2023/12/01 04:24:33;;;;;;;7.90;6.03;;;-5.30;99.90;;;;;;5030316;28;20598;-60
2023/12/01 04:27:04;;;;;;;11.87;5.97;;;-5.30;99.90;;;;;;5029482;28;20919;-59
2023/12/01 04:29:30;;;;;;;12.40;7.27;;;-5.30;99.90;;;;;;5033575;28;20540;-53
2023/12/01 04:32:00;;;;;;;8.67;6.07;;;-5.30;99.90;;;;;;5030458;28;20447;-59
2023/12/01 04:34:26;;;;;;;8.57;6.23;;;-5.40;99.90;;;;;;5032744;28;20614;-61
2023/12/01 04:36:53;;;;;;;9.90;5.37;;;-5.40;99.90;;;;;;5029517;28;20437;-61
2023/12/01 04:39:18;;;;;;;10.13;6.80;;;-5.30;99.90;;;;;;5029141;28;20683;-60
2023/12/01 04:41:44;;;;;;;10.17;7.47;;;-5.40;99.90;;;;;;5032740;28;20620;-53
2023/12/01 04:44:10;;;;;;;8.80;7.03;;;-5.40;99.90;;;;;;5030598;28;20183;-56
2023/12/01 04:46:35;;;;;;;11.17;5.90;;;-5.50;99.90;;;;;;5028525;28;20179;-58
2023/12/01 04:49:01;;;;;;;7.83;6.30;;;-5.50;99.90;;;;;;5031157;28;20290;-56
2023/12/01 04:51:26;;;;;;;9.80;6.07;;;-5.60;99.90;;;;;;5027924;28;20902;-57
2023/12/01 04:53:52;;;;;;;7.60;5.47;;;-5.60;99.90;;;;;;5031224;28;20262;-60
2023/12/01 04:56:18;;;;;;;9.50;6.93;;;-5.60;99.90;;;;;;5033019;28;20266;-56
2023/12/01 04:58:43;;;;;;;7.83;6.33;;;-5.50;99.90;;;;;;5028050;28;20207;-56
2023/12/01 05:01:10;;;;;;;11.40;7.50;;;-5.50;99.90;;;;;;5029605;28;20179;-61
2023/12/01 05:03:36;;;;;;;9.73;7.50;;;-5.50;99.90;;;;;;5027492;28;20186;-57
2023/12/01 05:06:01;;;;;;;10.57;7.13;;;-5.50;99.90;;;;;;5028662;28;21053;-56
2023/12/01 05:08:27;;;;;;;11.10;7.33;;;-5.50;99.90;;;;;;5029624;28;20198;-54
2023/12/01 05:10:54;;;;;;;10.35;6.18;;;-5.50;99.90;;;;;;5031417;28;20178;-53
2023/12/01 05:13:20;;;;;;;11.68;7.93;;;-5.50;99.90;;;;;;5029635;28;20602;-58
2023/12/01 05:15:46;;;;;;;8.60;6.33;;;-5.50;99.90;;;;;;5028892;28;20241;-56
2023/12/01 05:18:12;;;;;;;10.20;7.33;;;-5.50;99.90;;;;;;5028618;28;20507;-52
2023/12/01 05:20:38;;;;;;;16.20;7.00;;;-5.50;99.90;;;;;;5029789;28;20276;-59
2023/12/01 05:23:10;;;;;;;13.27;7.38;;;-5.50;99.90;;;;;;5029198;28;20289;-58
2023/12/01 05:25:41;;;;;;;8.90;7.50;;;-5.50;99.90;;;;;;5030012;28;20182;-58
2023/12/01 05:28:08;;;;;;;12.03;8.03;;;-5.50;99.90;;;;;;5030821;28;20449;-59
2023/12/01 05:30:35;;;;;;;8.97;6.83;;;-5.50;99.90;;;;;;5025790;28;20457;-60
2023/12/01 05:33:02;;;;;;;9.00;7.20;;;-5.50;99.90;;;;;;5027982;28;21060;-61
2023/12/01 05:35:28;;;;;;;11.32;7.63;;;-5.60;99.90;;;;;;5030696;28;20465;-58
2023/12/01 05:37:56;;;;;;;11.57;8.07;;;-5.60;99.90;;;;;;5029208;28;20180;-55
2023/12/01 05:40:29;;;;;;;15.03;7.40;;;-5.60;99.90;;;;;;5030949;28;20479;-56
2023/12/01 05:42:56;;;;;;;13.90;8.20;;;-5.60;99.90;;;;;;5028078;28;20434;-59
2023/12/01 05:45:24;;;;;;;12.87;6.90;;;-5.60;99.90;;;;;;5027370;28;20460;-59
2023/12/01 05:47:52;;;;;;;11.77;6.50;;;-5.70;99.90;;;;;;5029567;28;20429;-58
2023/12/01 05:50:26;;;;;;;10.13;7.77;;;-5.70;99.90;;;;;;5027997;28;20489;-55
2023/12/01 05:52:54;;;;;;;14.70;9.37;;;-5.70;99.90;;;;;;5028465;28;20447;-55
2023/12/01 05:55:21;;;;;;;10.13;5.90;;;-5.70;99.90;;;;;;5031010;28;20437;-59
2023/12/01 05:57:48;;;;;;;9.00;6.03;;;-5.60;99.90;;;;;;5026941;28;20482;-55
2023/12/01 06:00:20;;;;;;;10.63;6.72;;;-5.50;99.90;;;;;;5029714;28;20899;-51
2023/12/01 06:02:46;;;;;;;15.03;8.83;;;-5.50;99.90;;;;;;5027786;28;20180;-61
2023/12/01 06:05:16;;;;;;;13.23;8.53;;;-5.60;99.90;;;;;;5026559;28;20504;-61
2023/12/01 06:07:49;;;;;;;8.07;6.43;;;-5.50;99.90;;;;;;5030359;28;20476;-55
2023/12/01 06:10:16;;;;;;;11.85;8.57;;;-5.50;99.90;;;;;;5029515;28;20465;-56
2023/12/01 06:12:41;;;;;;;13.73;7.83;;;-5.50;99.90;;;;;;5024689;28;20327;-58
2023/12/01 06:15:09;;;;;;;13.20;8.37;;;-5.50;99.90;;;;;;5027588;28;20445;-58
2023/12/01 06:17:39;;;;;;;14.03;8.13;;;-5.40;99.90;;;;;;5012390;28;20212;-57
2023/12/01 06:20:05;;;;;;;10.38;6.95;;;-5.40;99.90;;;;;;5028399;28;20827;-53
2023/12/01 06:22:32;;;;;;;10.53;6.50;;;-5.20;99.90;;;;;;5029639;28;20198;-60
2023/12/01 06:24:58;;;;;;;11.80;7.82;;;-4.70;99.90;;;;;;5027862;28;20582;-54
2023/12/01 06:27:23;;;;;;;13.70;7.97;;;-4.90;99.90;;;;;;5027263;28;20183;-56
2023/12/01 06:29:51;;;;;;;12.40;8.43;;;-5.10;99.90;;;;;;5026969;28;20237;-58
2023/12/01 06:32:16;;;;;;;10.90;9.17;;;-5.20;99.90;;;;;;5025808;28;20650;-53
2023/12/01 06:34:42;;;;;;;14.00;9.87;;;-5.20;99.90;;;;;;5034361;28;20442;-56
2023/12/01 06:37:08;;;;;;;13.83;9.80;;;-5.30;99.90;;;;;;5032684;28;20206;-57
2023/12/01 06:39:33;;;;;;;11.40;7.50;;;-5.30;99.90;;;;;;5029869;28;20237;-60
2023/12/01 06:41:59;;;;;;;13.07;7.87;;;-5.40;99.90;;;;;;5034814;28;20202;-58
2023/12/01 06:44:24;;;;;;;11.63;9.07;;;-5.50;99.90;;;;;;5031514;28;20505;-57
2023/12/01 06:46:50;;;;;;;14.00;8.30;;;-5.50;99.90;;;;;;5029670;28;20212;-58
2023/12/01 06:49:15;;;;;;;17.00;9.73;;;-5.50;99.90;;;;;;5036043;28;20302;-57
2023/12/01 06:51:41;;;;;;;11.67;7.00;;;-5.60;99.90;;;;;;5031194;28;20187;-59
2023/12/01 06:54:09;;;;;;;13.50;8.80;;;-5.60;99.90;;;;;;5032002;28;20189;-54
2023/12/01 06:56:36;;;;;;;13.10;8.83;;;-5.60;99.90;;;;;;5030156;28;20186;-58
2023/12/01 06:59:06;;;;;;;13.30;7.90;;;-5.60;99.90;;;;;;5033515;28;21835;-60
2023/12/01 07:01:32;;;;;;;14.23;9.10;;;-5.60;99.90;;;;;;5034232;28;20436;-55
2023/12/01 07:03:57;;;;;;;12.50;9.17;;;-5.60;99.90;;;;;;5029803;28;20437;-54
2023/12/01 07:06:23;;;;;;;12.53;7.77;;;-5.60;99.90;;;;;;5032008;28;20268;-60
2023/12/01 07:08:49;;;;;;;15.20;8.77;;;-5.70;99.90;;;;;;5029518;28;20233;-58
2023/12/01 07:11:16;;;;;;;10.40;8.33;;;-5.70;99.90;;;;;;5032018;28;20846;-59
2023/12/01 07:13:42;;;;;;;13.80;8.90;;;-5.80;99.90;;;;;;5029332;28;20813;-59
2023/12/01 07:16:11;;;;;;;10.40;7.60;;;-5.90;99.90;;;;;;5032803;28;20425;-55
2023/12/01 07:18:38;;;;;;;12.43;6.90;;;-5.90;99.90;;;;;;5031896;28;20218;-57
2023/12/01 07:21:06;;;;;;;9.75;7.05;;;-6.00;99.90;;;;;;5030554;28;20186;-56
2023/12/01 07:23:32;;;;;;;9.25;6.82;;;-6.20;99.90;;;;;;5031581;28;20179;-57
2023/12/01 07:25:58;;;;;;;9.05;6.55;;;-6.20;99.90;;;;;;5029016;28;20230;-58
2023/12/01 07:28:24;;;;;;;9.48;6.50;;;-6.20;99.90;;;;;;5029287;28;20206;-50
2023/12/01 07:30:50;;;;;;;15.00;6.97;;;-6.20;99.90;;;;;;5034860;28;20291;-62
2023/12/01 07:33:16;;;;;;;14.93;7.53;;;-6.30;99.90;;;;;;5030184;28;20904;-61
2023/12/01 07:35:43;;;;;;;13.38;7.20;;;-6.30;99.90;;;;;;5011708;28;20543;-59
2023/12/01 07:38:09;;;;;;;13.13;6.82;;;-6.30;99.90;;;;;;5031199;28;20262;-61
2023/12/01 07:40:35;;;;;;;11.80;8.33;;;-6.40;99.90;;;;;;5029919;28;20209;-53
2023/12/01 07:43:01;;;;;;;10.50;7.05;;;-6.30;99.90;;;;;;5030304;28;20240;-55
2023/12/01 07:45:26;;;;;;;12.27;6.60;;;-6.30;99.90;;;;;;5031724;28;20348;-55
2023/12/01 07:47:54;;;;;;;19.40;7.57;;;-6.30;99.90;;;;;;5031135;28;20186;-61
2023/12/01 07:50:21;;;;;;;12.83;7.30;;;-6.30;99.90;;;;;;5031755;28;20278;-61
2023/12/01 07:52:50;;;;;;;15.70;7.40;;;-6.20;99.90;;;;;;5030955;28;20516;-62
2023/12/01 07:55:18;;;;;;;12.00;8.10;;;-6.20;99.90;;;;;;5031767;28;20392;-58
2023/12/01 07:57:43;;;;;;;16.60;8.07;;;-6.20;99.90;;;;;;5031702;28;20435;-61
2023/12/01 08:00:16;;;;;;;9.53;6.80;;;-6.10;99.90;;;;;;5031294;28;20201;-60
2023/12/01 08:02:51;;;;;;;12.35;7.15;;;-6.10;99.90;;;;;;5029676;28;20643;-56
2023/12/01 08:05:18;;;;;;;12.02;7.00;;;-6.00;99.90;;;;;;5029282;28;20736;-55
2023/12/01 08:07:43;;;;;;;10.55;6.50;;;-5.90;99.90;;;;;;5030442;28;20215;-57
2023/12/01 08:10:09;;;;;;;13.97;10.50;;;-6.00;99.90;;;;;;5028217;28;20667;-54
2023/12/01 08:12:35;;;;;;;11.27;7.47;;;-5.90;99.90;;;;;;5035723;28;20426;-59
2023/12/01 08:15:01;;;;;;;11.20;8.30;;;-5.80;99.90;;;;;;5028602;28;20179;-59
2023/12/01 08:17:26;;;;;;;16.50;9.00;;;-5.70;99.90;;;;;;5028211;28;20437;-59
2023/12/01 08:19:52;;;;;;;11.63;8.97;;;-5.60;99.90;;;;;;5030356;28;20218;-58
2023/12/01 08:22:18;;;;;;;17.03;7.97;;;-5.50;99.90;;;;;;5028218;28;20261;-58
2023/12/01 08:24:45;;;;;;;14.50;8.37;;;-5.30;99.90;;;;;;5029451;28;20289;-57
2023/12/01 08:27:11;;;;;;;11.77;9.50;;;-5.20;99.90;;;;;;5031288;28;20186;-55
2023/12/01 08:29:37;;;;;;;10.87;7.73;;;-5.30;99.90;;;;;;5030405;28;20782;-56
2023/12/01 08:32:03;;;;;;;14.13;9.40;;;-5.20;99.90;;;;;;5028663;28;20437;-61
2023/12/01 08:34:29;;;;;;;13.77;9.20;;;-5.20;99.90;;;;;;5026944;28;20313;-56
2023/12/01 08:36:54;;;;;;;12.23;8.00;;;-5.30;99.90;;;;;;5031213;28;20433;-57
2023/12/01 08:39:20;;;;;;;13.20;8.27;;;-5.30;99.90;;;;;;5032275;28;20210;-54
2023/12/01 08:41:46;;;;;;;16.50;8.47;;;-5.10;99.90;;;;;;5026265;28;20333;-55
2023/12/01 08:44:12;;;;;;;13.97;9.80;;;-4.90;99.90;;;;;;5030010;28;20468;-57
2023/12/01 08:46:37;;;;;;;10.93;8.80;;;-4.80;99.90;;;;;;5027644;28;20178;-57
2023/12/01 08:49:03;;;;;;;15.40;8.93;;;-4.40;99.90;;;;;;5029856;28;20245;-57
2023/12/01 08:51:28;;;;;;;12.43;8.90;;;-4.10;99.90;;;;;;5009844;28;20309;-61
2023/12/01 08:53:54;;;;;;;12.80;8.57;;;-4.30;99.90;;;;;;5013673;28;20171;-59
2023/12/01 08:56:20;;;;;;;13.60;8.73;;;-4.60;99.90;;;;;;5029495;28;20764;-54
2023/12/01 08:58:46;;;;;;;14.37;8.73;;;-4.60;99.90;;;;;;5025242;28;20563;-58
2023/12/01 09:01:11;;;;;;;13.77;8.50;;;-4.80;99.90;;;;;;5026931;28;20227;-54
2023/12/01 09:03:37;;;;;;;10.40;7.90;;;-4.90;99.90;;;;;;5028537;28;20178;-59
2023/12/01 09:06:03;;;;;;;13.37;9.13;;;-5.00;99.90;;;;;;5026761;28;20214;-60
2023/12/01 09:08:29;;;;;;;13.70;9.47;;;-5.10;99.90;;;;;;5032467;28;20310;-56
2023/12/01 09:10:54;;;;;;;13.10;8.57;;;-5.00;99.90;;;;;;5028001;28;20459;-54
2023/12/01 09:13:20;;;;;;;18.13;8.57;;;-5.00;99.90;;;;;;5027366;28;20167;-55
2023/12/01 09:15:46;;;;;;;12.93;7.80;;;-4.90;99.90;;;;;;5028532;28;20178;-58
2023/12/01 09:18:12;;;;;;;10.73;8.33;;;-4.80;99.90;;;;;;5028527;28;20183;-59
2023/12/01 09:20:38;;;;;;;16.13;8.30;;;-4.90;99.90;;;;;;5029384;28;20198;-53
2023/12/01 09:23:05;;;;;;;10.73;8.53;;;-4.70;99.90;;;;;;5031341;28;20476;-53
2023/12/01 09:25:31;;;;;;;11.43;8.07;;;-4.70;99.90;;;;;;5025123;28;20544;-54
2023/12/01 09:27:58;;;;;;;13.60;10.10;;;-4.50;99.90;;;;;;5027025;28;20429;-55
2023/12/01 09:30:24;;;;;;;22.00;10.90;;;-4.50;99.90;;;;;;5026659;28;20482;-58
2023/12/01 09:32:49;;;;;;;11.77;9.10;;;-4.50;99.90;;;;;;5027385;28;20425;-53
2023/12/01 09:35:15;;;;;;;14.83;9.67;;;-4.50;99.90;;;;;;5031771;28;20681;-58
2023/12/01 09:37:42;;;;;;;15.90;9.30;;;-4.40;99.90;;;;;;5027000;28;20185;-59
2023/12/01 09:40:08;;;;;;;14.73;9.80;;;-4.50;99.90;;;;;;4989328;28;1101299;-58
2023/12/01 09:42:37;;;;;;;19.40;11.37;;;-4.60;99.90;;;;;;5023811;28;21327;-60
2023/12/01 09:45:03;;;;;;;17.43;11.30;;;-4.50;99.90;;;;;;5028199;28;21027;-60
2023/12/01 09:47:33;;;;;;;18.63;11.17;;;-4.40;99.90;;;;;;5031422;28;20574;-53
2023/12/01 09:50:00;;;;;;;17.20;12.00;;;-4.30;99.90;;;;;;5031114;28;20463;-57
2023/12/01 09:52:26;;;;;;;20.10;11.00;;;-4.40;99.90;;;;;;5027845;28;20477;-60
2023/12/01 09:54:52;;;;;;;16.30;11.10;;;-4.40;99.90;;;;;;5029840;28;20516;-54
2023/12/01 09:57:19;;;;;;;18.47;12.13;;;-4.30;99.90;;;;;;5030807;28;21548;-61
2023/12/01 09:59:47;;;;;;;19.13;11.70;;;-4.20;99.90;;;;;;5027030;28;20206;-58
2023/12/01 10:02:13;;;;;;;19.57;12.83;;;-4.20;99.90;;;;;;5026941;28;20436;-55
2023/12/01 10:04:39;;;;;;;24.20;13.60;;;-4.10;99.90;;;;;;5033148;28;20531;-65
2023/12/01 10:07:04;;;;;;;19.87;12.10;;;-4.10;99.90;;;;;;5028831;28;20437;-57
2023/12/01 10:09:33;;;;;;;19.90;12.27;;;-3.90;99.90;;;;;;5030046;28;20633;-53
2023/12/01 10:12:09;;;;;;;15.70;12.20;;;-3.80;99.90;;;;;;5030534;28;20876;-65
2023/12/01 10:14:38;;;;;;;13.43;10.37;;;-3.80;99.90;;;;;;5033651;28;20587;-58
2023/12/01 10:17:07;;;;;;;14.20;10.83;;;-3.80;99.90;;;;;;5037543;28;20784;-64
2023/12/01 10:19:33;;;;;;;18.57;11.73;;;-3.60;99.90;;;;;;5030443;28;20441;-59
2023/12/01 10:21:59;;;;;;;15.13;11.13;;;-3.60;99.90;;;;;;5033133;28;20857;-57
2023/12/01 10:24:25;;;;;;;20.17;13.47;;;-3.50;99.90;;;;;;5013054;28;20461;-60
2023/12/01 10:26:53;;;;;;;16.90;13.83;;;-3.40;99.90;;;;;;5032823;28;20437;-57
2023/12/01 10:29:30;;;;;;;20.03;13.40;;;-3.30;99.90;;;;;;5033587;28;21086;-60
2023/12/01 10:32:07;;;;;;;18.90;13.97;;;-3.30;99.90;;;;;;5034898;28;21912;-66
2023/12/01 10:34:33;;;;;;;19.40;11.57;;;-3.20;99.90;;;;;;5033894;28;20497;-52
2023/12/01 10:37:00;;;;;;;19.20;13.47;;;-3.00;99.90;;;;;;5030831;28;20444;-58
2023/12/01 10:39:29;;;;;;;16.50;11.70;;;-2.90;99.90;;;;;;5031802;28;21007;-56
2023/12/01 10:41:59;;;;;;;22.77;13.67;;;-2.80;99.90;;;;;;5034392;28;20904;-57
2023/12/01 10:44:26;;;;;;;18.07;12.40;;;-2.80;99.90;;;;;;5031924;28;20472;-56
2023/12/01 10:46:54;;;;;;;23.23;11.97;;;-2.80;99.90;;;;;;5031637;28;20488;-59
2023/12/01 10:49:20;;;;;;;19.77;12.43;;;-2.70;99.90;;;;;;5012500;28;20910;-61
2023/12/01 10:51:52;;;;;;;17.83;11.70;;;-2.60;99.90;;;;;;5033216;28;20433;-59
2023/12/01 10:54:21;;;;;;;24.37;13.97;;;-2.50;99.90;;;;;;5032249;28;20480;-58
2023/12/01 10:56:56;;;;;;;16.60;12.20;;;-2.50;99.90;;;;;;5033008;28;20544;-55
2023/12/01 10:59:24;;;;;;;17.10;11.80;;;-2.50;99.90;;;;;;5035120;28;20882;-59
2023/12/01 11:01:52;;;;;;;17.70;11.90;;;-2.40;99.90;;;;;;5034205;28;20439;-58
2023/12/01 11:04:26;;;;;;;19.40;13.53;;;-2.20;99.90;;;;;;5053935;28;20798;-52
2023/12/01 11:06:55;;;;;;;16.47;11.13;;;-2.10;99.90;;;;;;5045969;28;20410;-56
2023/12/01 11:09:46;;;;;;;15.90;11.93;;;-2.00;99.90;;;;;;5037360;28;20859;-55
2023/12/01 11:12:25;;;;;;;15.57;10.70;;;-2.00;99.90;;;;;;4991245;28;20460;-55
2023/12/01 11:14:52;;;;;;;16.47;10.83;;;-1.90;99.90;;;;;;5035293;28;20976;-53
2023/12/01 11:17:18;;;;;;;14.80;9.43;;;-1.90;99.90;;;;;;5048841;28;20445;-64
2023/12/01 11:19:44;;;;;;;14.83;9.30;;;-1.80;99.90;;;;;;5046409;28;20433;-59
2023/12/01 11:22:32;;;;;;;17.90;10.43;;;-1.80;99.90;;;;;;5038210;28;20420;-55
2023/12/01 11:24:58;;;;;;;15.50;10.47;;;-1.70;99.90;;;;;;5043199;28;20211;-54
2023/12/01 11:27:25;;;;;;;15.23;11.10;;;-1.60;99.90;;;;;;5046667;28;20762;-54
2023/12/01 11:29:59;;;;;;;13.40;10.27;;;-1.60;99.90;;;;;;5051165;28;20285;-55
2023/12/01 11:32:34;;;;;;;20.30;11.77;;;-1.60;99.90;;;;;;5046508;28;20429;-54
2023/12/01 11:35:04;;;;;;;19.63;12.40;;;-1.60;99.90;;;;;;5048318;28;20421;-57
2023/12/01 11:37:59;;;;;;;16.53;11.33;;;-1.50;99.90;;;;;;5049388;28;20406;-55
2023/12/01 11:40:26;;;;;;;26.83;11.30;;;-1.40;99.90;;;;;;5045155;28;20449;-56
2023/12/01 11:42:52;;;;;;;21.23;10.37;;;-1.30;99.90;;;;;;5051897;28;20726;-57
2023/12/01 11:45:39;;;;;;;21.53;10.40;;;-1.30;99.90;;;;;;5042633;28;20461;-56
2023/12/01 11:48:07;;;;;;;19.87;12.93;;;-1.20;99.90;;;;;;5042412;28;20496;-55
2023/12/01 11:50:33;;;;;;;19.03;10.93;;;-1.30;99.90;;;;;;5042852;28;20426;-55
2023/12/01 11:52:59;;;;;;;24.40;11.40;;;-1.30;99.90;;;;;;5043063;28;20421;-52
2023/12/01 11:55:26;;;;;;;15.93;11.77;;;-1.30;99.90;;;;;;5048395;28;20857;-53
2023/12/01 11:57:53;;;;;;;20.27;13.00;;;-1.20;99.90;;;;;;5058337;28;20187;-58
2023/12/01 12:00:19;;;;;;;18.27;10.90;;;-1.10;99.90;;;;;;5049816;28;20456;-54
2023/12/01 12:02:45;;;;;;;16.03;11.27;;;-1.00;99.90;;;;;;5047932;28;20432;-58
2023/12/01 12:05:12;;;;;;;20.63;11.63;;;-1.10;99.90;;;;;;5050757;28;20460;-60
2023/12/01 12:07:38;;;;;;;16.33;11.50;;;-1.10;99.90;;;;;;5058912;28;20425;-54
2023/12/01 12:10:06;;;;;;;20.67;11.90;;;-1.10;99.90;;;;;;5058720;28;20465;-56
2023/12/01 12:12:32;;;;;;;16.73;12.23;;;-1.10;99.90;;;;;;5050741;28;20508;-55
2023/12/01 12:15:05;;;;;;;14.80;10.00;;;-1.10;99.90;;;;;;5044969;28;20500;-62
2023/12/01 12:17:31;;;;;;;15.40;10.70;;;-1.20;99.90;;;;;;5048662;28;20171;-58
2023/12/01 12:19:58;;;;;;;21.00;13.50;;;-1.10;99.90;;;;;;5055755;28;20437;-59
2023/12/01 12:22:24;;;;;;;19.37;13.23;;;-1.00;99.90;;;;;;5045347;28;20765;-56
2023/12/01 12:24:51;;;;;;;17.27;11.10;;;-0.90;99.90;;;;;;5045883;28;20461;-56
2023/12/01 12:27:17;;;;;;;13.80;10.67;;;-1.00;99.90;;;;;;5048413;28;20413;-58
2023/12/01 12:29:43;;;;;;;16.33;9.97;;;-1.10;99.90;;;;;;5044554;28;20445;-55
2023/12/01 12:32:09;;;;;;;12.73;10.20;;;-1.20;99.90;;;;;;5056023;28;20171;-54